createdAt,value
2024-01-01T00:00:21.031Z,37.976000
2024-01-01T00:05:23.440Z,36.975714
2024-01-01T00:10:25.704Z,36.332000
2024-01-01T00:15:27.680Z,35.792000
2024-01-01T00:20:29.991Z,35.216000
2024-01-01T00:25:32.842Z,35.024000
2024-01-01T00:30:34.786Z,34.856000
2024-01-01T00:35:16.613Z,34.376000
2024-01-01T00:40:18.551Z,33.848000
2024-01-01T00:45:20.627Z,33.596000
2024-01-01T00:50:22.912Z,33.002857
2024-01-01T00:55:24.758Z,32.900000
2024-01-01T01:00:26.725Z,32.900000
2024-01-01T01:05:28.684Z,32.948000
2024-01-01T01:10:30.768Z,33.092000
2024-01-01T01:15:33.157Z,33.200000
2024-01-01T01:20:34.762Z,33.260000
2024-01-01T01:25:16.919Z,33.356000
2024-01-01T01:30:18.769Z,32.996000
2024-01-01T01:35:20.600Z,32.648000
2024-01-01T01:40:22.418Z,32.694286
2024-01-01T01:45:24.300Z,32.468000
2024-01-01T01:50:26.298Z,32.360000
2024-01-01T01:55:28.074Z,32.180000
2024-01-01T02:00:30.605Z,31.628000
2024-01-01T02:05:33.641Z,31.244000
2024-01-01T02:10:36.051Z,30.812000
2024-01-01T02:15:18.432Z,30.740000
2024-01-01T02:20:20.480Z,30.872000
2024-01-01T02:25:22.335Z,30.907143
2024-01-01T02:30:24.359Z,30.980000
2024-01-01T02:35:26.380Z,30.476000
2024-01-01T02:40:28.216Z,30.464000
2024-01-01T02:45:30.124Z,30.380000
2024-01-01T02:50:32.285Z,30.692000
2024-01-01T02:55:37.290Z,30.608000
2024-01-01T03:00:16.762Z,30.128000
2024-01-01T03:05:19.097Z,29.720000
2024-01-01T03:10:21.315Z,29.372000
2024-01-01T03:15:23.984Z,29.364286
2024-01-01T03:20:26.365Z,29.444000
2024-01-01T03:25:28.352Z,29.936000
2024-01-01T03:30:30.622Z,29.912000
2024-01-01T03:35:32.872Z,29.516000
2024-01-01T03:40:35.209Z,29.840000
2024-01-01T03:45:16.610Z,29.756000
2024-01-01T03:50:18.911Z,29.744000
2024-01-01T03:55:21.270Z,29.564000
2024-01-01T04:00:23.285Z,29.480000
2024-01-01T04:05:25.430Z,29.396000
2024-01-01T04:10:27.317Z,28.496000
2024-01-01T04:15:29.190Z,28.016000
2024-01-01T04:20:31.164Z,28.316000
2024-01-01T04:25:32.962Z,28.256000
2024-01-01T04:30:34.945Z,28.076000
2024-01-01T04:35:17.287Z,28.568000
2024-01-01T04:40:19.941Z,28.328000
2024-01-01T04:45:21.907Z,28.316000
2024-01-01T04:50:23.818Z,28.168571
2024-01-01T04:55:25.659Z,28.436000
2024-01-01T05:00:27.536Z,29.276000
2024-01-01T05:05:29.572Z,29.120000
2024-01-01T05:10:31.626Z,28.988000
2024-01-01T05:15:33.572Z,28.472000
2024-01-01T05:20:35.550Z,28.196000
2024-01-01T05:25:17.441Z,27.860000
2024-01-01T05:30:19.490Z,28.088000
2024-01-01T05:35:21.387Z,27.740000
2024-01-01T05:40:23.132Z,27.590000
2024-01-01T05:45:25.186Z,26.348000
2024-01-01T05:50:27.368Z,26.300000
2024-01-01T05:55:29.760Z,25.976000
2024-01-01T06:00:32.325Z,26.300000
2024-01-01T06:05:34.936Z,26.408000
2024-01-01T06:10:16.489Z,26.240000
2024-01-01T06:15:18.543Z,26.240000
2024-01-01T06:20:20.592Z,26.612000
2024-01-01T06:25:22.573Z,28.194286
2024-01-01T06:30:24.635Z,28.280000
2024-01-01T06:35:28.923Z,28.352000
2024-01-01T06:40:28.320Z,27.536000
2024-01-01T06:45:30.274Z,27.920000
2024-01-01T06:50:32.880Z,28.088000
2024-01-01T06:55:35.973Z,27.296000
2024-01-01T07:00:18.001Z,26.960000
2024-01-01T07:05:21.089Z,25.988000
2024-01-01T07:10:22.707Z,25.070000
2024-01-01T07:15:25.031Z,25.976000
2024-01-01T07:20:27.084Z,26.696000
2024-01-01T07:25:29.000Z,25.520000
2024-01-01T07:30:30.923Z,25.040000
2024-01-01T07:35:33.023Z,24.860000
2024-01-01T07:40:35.673Z,24.956000
2024-01-01T07:45:16.861Z,24.980000
2024-01-01T07:50:22.053Z,24.896000
2024-01-01T07:55:21.023Z,24.716000
2024-01-01T08:00:22.693Z,24.620000
2024-01-01T08:05:24.809Z,24.704000
2024-01-01T08:10:26.709Z,24.956000
2024-01-01T08:15:28.643Z,25.544000
2024-01-01T08:20:30.650Z,26.000000
2024-01-01T08:25:32.432Z,26.348000
2024-01-01T08:30:34.372Z,26.480000
2024-01-01T08:35:16.327Z,26.024000
2024-01-01T08:40:18.127Z,25.736000
2024-01-01T08:45:20.082Z,26.144000
2024-01-01T08:50:22.257Z,25.725714
2024-01-01T08:55:24.309Z,25.568000
2024-01-01T09:00:26.240Z,25.340000
2024-01-01T09:05:28.492Z,25.136000
2024-01-01T09:10:30.290Z,24.824000
2024-01-01T09:15:33.066Z,25.496000
2024-01-01T09:20:35.940Z,26.396000
2024-01-01T09:25:18.379Z,25.448000
2024-01-01T09:30:21.812Z,23.984000
2024-01-01T09:35:24.802Z,23.437143
2024-01-01T09:40:27.218Z,23.540000
2024-01-01T09:45:29.126Z,23.672000
2024-01-01T09:50:30.896Z,24.440000
2024-01-01T09:55:32.943Z,24.800000
2024-01-01T10:00:34.720Z,24.788000
2024-01-01T10:05:16.624Z,24.476000
2024-01-01T10:10:18.580Z,23.816000
2024-01-01T10:15:20.612Z,23.768000
2024-01-01T10:20:22.664Z,23.501429
2024-01-01T10:25:25.151Z,22.712000
2024-01-01T10:30:27.960Z,22.880000
2024-01-01T10:35:30.923Z,23.432000
2024-01-01T10:40:33.402Z,23.276000
2024-01-01T10:45:35.139Z,22.880000
2024-01-01T10:50:16.973Z,22.832000
2024-01-01T10:55:19.091Z,23.180000
2024-01-01T11:00:20.866Z,22.940000
2024-01-01T11:05:23.394Z,23.051429
2024-01-01T11:10:30.439Z,23.048000
2024-01-01T11:15:26.820Z,23.240000
2024-01-01T11:20:29.143Z,23.276000
2024-01-01T11:25:31.643Z,23.048000
2024-01-01T11:30:33.576Z,22.892000
2024-01-01T11:35:35.721Z,22.796000
2024-01-01T11:40:17.272Z,22.304000
2024-01-01T11:45:20.645Z,22.016000
2024-01-01T11:50:22.961Z,21.881429
2024-01-01T11:55:25.543Z,21.824000
2024-01-01T12:00:27.677Z,21.716000
2024-01-01T12:05:29.698Z,21.428000
2024-01-01T12:10:31.608Z,21.248000
2024-01-01T12:15:33.598Z,21.032000
2024-01-01T12:20:35.812Z,21.260000
2024-01-01T12:25:17.838Z,21.536000
2024-01-01T12:30:19.740Z,21.920000
2024-01-01T12:35:22.089Z,21.764000
2024-01-01T12:40:24.032Z,20.981429
2024-01-01T12:45:25.955Z,20.732000
2024-01-01T12:50:28.359Z,21.020000
2024-01-01T12:55:30.613Z,21.008000
2024-01-01T13:00:33.424Z,20.972000
2024-01-01T13:05:36.022Z,22.028000
2024-01-01T13:10:17.707Z,22.400000
2024-01-01T13:15:19.969Z,22.340000
2024-01-01T13:20:22.026Z,22.524286
2024-01-01T13:25:24.164Z,22.364000
2024-01-01T13:30:26.419Z,22.100000
2024-01-01T13:35:28.383Z,21.836000
2024-01-01T13:40:30.275Z,22.316000
2024-01-01T13:45:32.152Z,21.488000
2024-01-01T13:50:34.275Z,21.068000
2024-01-01T13:55:15.874Z,20.540000
2024-01-01T14:00:17.995Z,19.988000
2024-01-01T14:05:20.104Z,19.760000
2024-01-01T14:10:22.413Z,19.772857
2024-01-01T14:15:24.251Z,19.964000
2024-01-01T14:20:26.499Z,20.120000
2024-01-01T14:25:28.305Z,20.372000
2024-01-01T14:30:30.228Z,20.480000
2024-01-01T14:35:32.193Z,20.696000
2024-01-01T14:40:34.650Z,21.044000
2024-01-01T14:45:17.163Z,20.936000
2024-01-01T14:50:19.969Z,21.608000
2024-01-01T14:55:22.387Z,21.444286
2024-01-01T15:00:25.271Z,21.260000
2024-01-01T15:05:28.203Z,22.124000
2024-01-01T15:10:30.410Z,22.544000
2024-01-01T15:15:32.962Z,22.808000
2024-01-01T15:20:36.146Z,22.256000
2024-01-01T15:25:18.319Z,22.016000
2024-01-01T15:30:20.723Z,22.100000
2024-01-01T15:35:22.975Z,22.447143
2024-01-01T15:40:24.889Z,22.616000
2024-01-01T15:45:26.707Z,23.156000
2024-01-01T15:50:30.473Z,23.972000
2024-01-01T15:55:30.804Z,24.716000
2024-01-01T16:00:32.960Z,24.716000
2024-01-01T16:05:35.484Z,25.208000
2024-01-01T16:10:17.906Z,24.956000
2024-01-01T16:15:20.774Z,24.920000
2024-01-01T16:20:23.464Z,25.712857
2024-01-01T16:25:25.562Z,26.180000
2024-01-01T16:30:28.328Z,27.644000
2024-01-01T16:35:30.842Z,28.328000
2024-01-01T16:40:33.360Z,29.648000
2024-01-01T16:45:36.009Z,30.164000
2024-01-01T16:50:18.728Z,29.744000
2024-01-01T16:55:21.756Z,32.156000
2024-01-01T17:00:24.346Z,31.010000
2024-01-01T17:05:27.317Z,30.272000
2024-01-01T17:10:29.708Z,30.596000
2024-01-01T17:15:32.377Z,30.452000
2024-01-01T17:20:34.780Z,30.944000
2024-01-01T17:25:16.956Z,31.112000
2024-01-01T17:30:19.665Z,31.760000
2024-01-01T17:35:22.230Z,32.025714
2024-01-01T17:40:24.826Z,31.952000
2024-01-01T17:45:27.491Z,32.276000
2024-01-01T17:50:29.763Z,32.492000
2024-01-01T17:55:32.286Z,33.116000
2024-01-01T18:00:34.825Z,33.200000
2024-01-01T18:05:17.479Z,33.740000
2024-01-01T18:10:19.635Z,34.016000
2024-01-01T18:15:22.840Z,34.057143
2024-01-01T18:20:25.405Z,34.136000
2024-01-01T18:25:28.227Z,34.508000
2024-01-01T18:30:31.678Z,34.256000
2024-01-01T18:35:34.498Z,34.736000
2024-01-01T18:40:16.634Z,35.324000
2024-01-01T18:45:19.105Z,35.408000
2024-01-01T18:50:22.542Z,35.252857
2024-01-01T18:55:24.601Z,35.336000
2024-01-01T19:00:27.062Z,35.264000
2024-01-01T19:05:29.522Z,35.312000
2024-01-01T19:10:32.129Z,35.672000
2024-01-01T19:15:38.978Z,35.996000
2024-01-01T19:20:17.749Z,36.284000
2024-01-01T19:25:20.283Z,36.836000
2024-01-01T19:30:22.985Z,36.872857
2024-01-01T19:35:25.381Z,36.548000
2024-01-01T19:40:27.885Z,37.112000
2024-01-01T19:45:29.960Z,37.304000
2024-01-01T19:50:31.994Z,37.160000
2024-01-01T19:55:33.973Z,37.100000
2024-01-01T20:00:36.579Z,36.944000
2024-01-01T20:05:17.721Z,36.572000
2024-01-01T20:10:19.593Z,36.572000
2024-01-01T20:15:21.835Z,36.800000
2024-01-01T20:20:24.499Z,36.975714
2024-01-01T20:25:27.233Z,37.688000
2024-01-01T20:30:29.852Z,38.084000
2024-01-01T20:35:32.386Z,38.576000
2024-01-01T20:40:34.130Z,38.828000
2024-01-01T20:45:16.043Z,39.068000
2024-01-01T20:50:18.265Z,39.584000
2024-01-01T20:55:20.319Z,39.860000
2024-01-01T21:00:22.529Z,40.100000
2024-01-01T21:05:24.736Z,40.124000
2024-01-01T21:10:26.837Z,40.376000
2024-01-01T21:15:28.855Z,40.040000
2024-01-01T21:20:30.927Z,40.280000
2024-01-01T21:25:32.700Z,40.604000
2024-01-01T21:30:34.908Z,41.084000
2024-01-01T21:35:16.573Z,41.240000
2024-01-01T21:40:18.934Z,41.060000
2024-01-01T21:45:21.656Z,41.492000
2024-01-01T21:50:24.126Z,41.938571
2024-01-01T21:55:27.077Z,42.548000
2024-01-01T22:00:29.389Z,42.164000
2024-01-01T22:05:32.239Z,42.548000
2024-01-01T22:10:35.096Z,42.212000
2024-01-01T22:15:18.254Z,42.512000
2024-01-01T22:20:19.664Z,42.236000
2024-01-01T22:25:21.794Z,41.792000
2024-01-01T22:30:24.086Z,41.630000
2024-01-01T22:35:26.102Z,41.792000
2024-01-01T22:40:27.964Z,42.068000
2024-01-01T22:45:29.829Z,42.236000
2024-01-01T22:50:31.777Z,41.492000
2024-01-01T22:55:33.947Z,41.924000
2024-01-01T23:00:36.112Z,42.080000
2024-01-01T23:05:18.616Z,42.020000
2024-01-01T23:10:21.276Z,42.056000
2024-01-01T23:15:23.963Z,41.951429
2024-01-01T23:20:26.794Z,41.888000
2024-01-01T23:25:37.364Z,41.444000
2024-01-01T23:30:31.860Z,41.492000
2024-01-01T23:35:34.847Z,41.264000
2024-01-01T23:40:17.081Z,40.532000
2024-01-01T23:45:19.709Z,40.064000
2024-01-01T23:50:22.563Z,39.740000
2024-01-01T23:55:25.090Z,39.392000
